sensor_id;sensor_type;location;lat;lon;timestamp;temperature;humidity
37356;DHT22;48747;50.250;18.848;2022-12-11T00:02:50;0.80;99.90
37356;DHT22;48747;50.250;18.848;2022-12-11T00:16:22;0.70;99.90
37356;DHT22;48747;50.250;18.848;2022-12-11T00:21:24;0.70;99.90
37356;DHT22;48747;50.250;18.848;2022-12-11T00:23:51;0.70;99.90
37356;DHT22;48747;50.250;18.848;2022-12-11T00:25:54;0.80;99.90
37356;DHT22;48747;50.250;18.848;2022-12-11T00:28:30;0.80;99.90
37356;DHT22;48747;50.250;18.848;2022-12-11T00:30:50;0.80;99.90
37356;DHT22;48747;50.250;18.848;2022-12-11T00:35:50;0.80;99.90
37356;DHT22;48747;50.250;18.848;2022-12-11T00:38:20;0.70;99.90
37356;DHT22;48747;50.250;18.848;2022-12-11T00:52:26;0.80;99.90
37356;DHT22;48747;50.250;18.848;2022-12-11T00:57:01;0.80;99.90
37356;DHT22;48747;50.250;18.848;2022-12-11T01:02:01;0.80;99.90
37356;DHT22;48747;50.250;18.848;2022-12-11T01:04:26;0.80;99.90
37356;DHT22;48747;50.250;18.848;2022-12-11T01:09:28;0.80;99.90
37356;DHT22;48747;50.250;18.848;2022-12-11T01:20:40;0.80;99.90
37356;DHT22;48747;50.250;18.848;2022-12-11T01:25:27;0.80;99.90
37356;DHT22;48747;50.250;18.848;2022-12-11T01:30:29;0.80;99.90
37356;DHT22;48747;50.250;18.848;2022-12-11T01:38:51;0.70;99.90
37356;DHT22;48747;50.250;18.848;2022-12-11T01:49:26;0.70;99.90
37356;DHT22;48747;50.250;18.848;2022-12-11T01:52:17;0.70;99.90
37356;DHT22;48747;50.250;18.848;2022-12-11T02:00:32;0.80;99.90
37356;DHT22;48747;50.250;18.848;2022-12-11T02:05:10;0.80;99.90
37356;DHT22;48747;50.250;18.848;2022-12-11T02:22:24;0.70;99.90
37356;DHT22;48747;50.250;18.848;2022-12-11T02:33:21;0.70;99.90
37356;DHT22;48747;50.250;18.848;2022-12-11T02:47:46;0.70;99.90
37356;DHT22;48747;50.250;18.848;2022-12-11T02:52:50;0.70;99.90
37356;DHT22;48747;50.250;18.848;2022-12-11T02:55:39;0.70;99.90
37356;DHT22;48747;50.250;18.848;2022-12-11T03:00:22;0.70;99.90
37356;DHT22;48747;50.250;18.848;2022-12-11T03:30:33;0.60;99.90
37356;DHT22;48747;50.250;18.848;2022-12-11T03:32:55;0.60;99.90
37356;DHT22;48747;50.250;18.848;2022-12-11T03:37:50;0.60;99.90
37356;DHT22;48747;50.250;18.848;2022-12-11T03:42:54;0.50;99.90
37356;DHT22;48747;50.250;18.848;2022-12-11T03:48:01;0.50;99.90
37356;DHT22;48747;50.250;18.848;2022-12-11T03:53:03;0.50;99.90
37356;DHT22;48747;50.250;18.848;2022-12-11T03:58:05;0.50;99.90
37356;DHT22;48747;50.250;18.848;2022-12-11T04:00:14;0.50;99.90
37356;DHT22;48747;50.250;18.848;2022-12-11T04:09:42;0.40;99.90
37356;DHT22;48747;50.250;18.848;2022-12-11T04:17:23;0.50;99.90
37356;DHT22;48747;50.250;18.848;2022-12-11T04:19:44;0.40;99.90
37356;DHT22;48747;50.250;18.848;2022-12-11T04:22:10;0.40;99.90
37356;DHT22;48747;50.250;18.848;2022-12-11T04:24:31;0.40;99.90
37356;DHT22;48747;50.250;18.848;2022-12-11T04:34:30;0.40;99.90
37356;DHT22;48747;50.250;18.848;2022-12-11T04:36:31;0.40;99.90
37356;DHT22;48747;50.250;18.848;2022-12-11T04:41:33;0.40;99.90
37356;DHT22;48747;50.250;18.848;2022-12-11T04:43:53;0.30;99.90
37356;DHT22;48747;50.250;18.848;2022-12-11T05:39:06;0.10;99.90
37356;DHT22;48747;50.250;18.848;2022-12-11T05:41:06;0.10;99.90
37356;DHT22;48747;50.250;18.848;2022-12-11T05:43:42;0.10;99.90
37356;DHT22;48747;50.250;18.848;2022-12-11T05:45:43;0.10;99.90
37356;DHT22;48747;50.250;18.848;2022-12-11T05:48:25;0.10;99.90
37356;DHT22;48747;50.250;18.848;2022-12-11T05:50:24;0.10;99.90
37356;DHT22;48747;50.250;18.848;2022-12-11T05:55:09;0.10;99.90
37356;DHT22;48747;50.250;18.848;2022-12-11T05:57:13;0.10;99.90
37356;DHT22;48747;50.250;18.848;2022-12-11T05:59:17;0.10;99.90
37356;DHT22;48747;50.250;18.848;2022-12-11T06:01:35;0.10;99.90
37356;DHT22;48747;50.250;18.848;2022-12-11T06:03:40;0.10;99.90
37356;DHT22;48747;50.250;18.848;2022-12-11T06:05:45;0.10;99.90
37356;DHT22;48747;50.250;18.848;2022-12-11T06:07:48;0.10;99.90
37356;DHT22;48747;50.250;18.848;2022-12-11T06:09:53;0.10;99.90
37356;DHT22;48747;50.250;18.848;2022-12-11T06:11:56;0.00;99.90
37356;DHT22;48747;50.250;18.848;2022-12-11T06:14:07;0.10;99.90
37356;DHT22;48747;50.250;18.848;2022-12-11T06:16:08;0.00;99.90
37356;DHT22;48747;50.250;18.848;2022-12-11T06:18:11;0.00;99.90
37356;DHT22;48747;50.250;18.848;2022-12-11T06:20:14;0.00;99.90
37356;DHT22;48747;50.250;18.848;2022-12-11T06:22:17;-0.10;99.90
37356;DHT22;48747;50.250;18.848;2022-12-11T06:24:21;-0.10;99.90
37356;DHT22;48747;50.250;18.848;2022-12-11T06:26:24;-0.10;99.90
37356;DHT22;48747;50.250;18.848;2022-12-11T06:28:32;-0.10;99.90
37356;DHT22;48747;50.250;18.848;2022-12-11T06:30:36;-0.10;99.90
37356;DHT22;48747;50.250;18.848;2022-12-11T06:32:44;-0.10;99.90
37356;DHT22;48747;50.250;18.848;2022-12-11T06:34:45;-0.10;99.90
37356;DHT22;48747;50.250;18.848;2022-12-11T06:36:51;-0.10;99.90
37356;DHT22;48747;50.250;18.848;2022-12-11T06:38:54;-0.10;99.90
37356;DHT22;48747;50.250;18.848;2022-12-11T06:41:01;-0.10;99.90
37356;DHT22;48747;50.250;18.848;2022-12-11T06:43:04;-0.10;99.90
37356;DHT22;48747;50.250;18.848;2022-12-11T06:45:12;-0.20;99.90
37356;DHT22;48747;50.250;18.848;2022-12-11T06:47:12;-0.20;99.90
37356;DHT22;48747;50.250;18.848;2022-12-11T06:49:15;-0.20;99.90
37356;DHT22;48747;50.250;18.848;2022-12-11T06:51:20;-0.20;99.90
37356;DHT22;48747;50.250;18.848;2022-12-11T06:53:25;-0.20;99.90
37356;DHT22;48747;50.250;18.848;2022-12-11T06:55:30;-0.20;99.90
37356;DHT22;48747;50.250;18.848;2022-12-11T06:57:36;-0.20;99.90
37356;DHT22;48747;50.250;18.848;2022-12-11T06:59:39;-0.20;99.90
37356;DHT22;48747;50.250;18.848;2022-12-11T07:01:45;-0.30;99.90
37356;DHT22;48747;50.250;18.848;2022-12-11T07:03:47;-0.20;99.90
37356;DHT22;48747;50.250;18.848;2022-12-11T07:05:52;-0.20;99.90
37356;DHT22;48747;50.250;18.848;2022-12-11T07:07:57;-0.20;99.90
37356;DHT22;48747;50.250;18.848;2022-12-11T07:10:02;-0.20;99.90
37356;DHT22;48747;50.250;18.848;2022-12-11T07:12:07;-0.20;99.90
37356;DHT22;48747;50.250;18.848;2022-12-11T07:14:12;-0.20;99.90
37356;DHT22;48747;50.250;18.848;2022-12-11T07:16:16;-0.20;99.90
37356;DHT22;48747;50.250;18.848;2022-12-11T07:18:21;-0.20;99.90
37356;DHT22;48747;50.250;18.848;2022-12-11T07:20:29;-0.30;99.90
37356;DHT22;48747;50.250;18.848;2022-12-11T07:22:30;-0.20;99.90
37356;DHT22;48747;50.250;18.848;2022-12-11T07:24:35;-0.30;99.90
37356;DHT22;48747;50.250;18.848;2022-12-11T07:26:38;-0.30;99.90
37356;DHT22;48747;50.250;18.848;2022-12-11T07:28:45;-0.30;99.90
37356;DHT22;48747;50.250;18.848;2022-12-11T07:30:47;-0.30;99.90
37356;DHT22;48747;50.250;18.848;2022-12-11T07:32:50;-0.30;99.90
37356;DHT22;48747;50.250;18.848;2022-12-11T07:34:53;-0.30;99.90
37356;DHT22;48747;50.250;18.848;2022-12-11T07:36:56;-0.20;99.90
37356;DHT22;48747;50.250;18.848;2022-12-11T07:39:00;-0.20;99.90
37356;DHT22;48747;50.250;18.848;2022-12-11T07:41:07;-0.30;99.90
37356;DHT22;48747;50.250;18.848;2022-12-11T07:43:11;-0.20;99.90
37356;DHT22;48747;50.250;18.848;2022-12-11T07:45:14;-0.20;99.90
37356;DHT22;48747;50.250;18.848;2022-12-11T07:47:17;-0.30;99.90
37356;DHT22;48747;50.250;18.848;2022-12-11T07:49:25;-0.30;99.90
37356;DHT22;48747;50.250;18.848;2022-12-11T07:51:27;-0.30;99.90
37356;DHT22;48747;50.250;18.848;2022-12-11T07:53:32;-0.30;99.90
37356;DHT22;48747;50.250;18.848;2022-12-11T07:55:37;-0.40;99.90
37356;DHT22;48747;50.250;18.848;2022-12-11T07:57:42;-0.30;99.90
37356;DHT22;48747;50.250;18.848;2022-12-11T07:59:46;-0.30;99.90
37356;DHT22;48747;50.250;18.848;2022-12-11T08:01:49;-0.30;99.90
37356;DHT22;48747;50.250;18.848;2022-12-11T08:03:53;-0.30;99.90
37356;DHT22;48747;50.250;18.848;2022-12-11T08:06:03;-0.30;99.90
37356;DHT22;48747;50.250;18.848;2022-12-11T08:08:04;-0.30;99.90
37356;DHT22;48747;50.250;18.848;2022-12-11T08:10:07;-0.30;99.90
37356;DHT22;48747;50.250;18.848;2022-12-11T08:12:11;-0.20;99.90
37356;DHT22;48747;50.250;18.848;2022-12-11T08:14:14;-0.30;99.90
37356;DHT22;48747;50.250;18.848;2022-12-11T08:16:18;-0.20;99.90
37356;DHT22;48747;50.250;18.848;2022-12-11T08:18:21;-0.20;99.90
37356;DHT22;48747;50.250;18.848;2022-12-11T08:20:26;-0.30;99.90
37356;DHT22;48747;50.250;18.848;2022-12-11T08:22:32;-0.30;99.90
37356;DHT22;48747;50.250;18.848;2022-12-11T08:24:36;-0.30;99.90
37356;DHT22;48747;50.250;18.848;2022-12-11T08:27:17;-0.30;99.90
37356;DHT22;48747;50.250;18.848;2022-12-11T08:29:17;-0.30;99.90
37356;DHT22;48747;50.250;18.848;2022-12-11T08:31:22;-0.30;99.90
37356;DHT22;48747;50.250;18.848;2022-12-11T08:33:26;-0.30;99.90
37356;DHT22;48747;50.250;18.848;2022-12-11T08:35:31;-0.30;99.90
37356;DHT22;48747;50.250;18.848;2022-12-11T08:37:34;-0.30;99.90
37356;DHT22;48747;50.250;18.848;2022-12-11T08:40:08;-0.30;99.90
37356;DHT22;48747;50.250;18.848;2022-12-11T08:42:09;-0.40;99.90
37356;DHT22;48747;50.250;18.848;2022-12-11T08:44:12;-0.40;99.90
37356;DHT22;48747;50.250;18.848;2022-12-11T08:46:17;-0.40;99.90
37356;DHT22;48747;50.250;18.848;2022-12-11T08:48:20;-0.40;99.90
37356;DHT22;48747;50.250;18.848;2022-12-11T08:50:23;-0.40;99.90
37356;DHT22;48747;50.250;18.848;2022-12-11T08:52:26;-0.40;99.90
37356;DHT22;48747;50.250;18.848;2022-12-11T08:54:31;-0.40;99.90
37356;DHT22;48747;50.250;18.848;2022-12-11T08:57:13;-0.40;99.90
37356;DHT22;48747;50.250;18.848;2022-12-11T08:59:20;-0.40;99.90
37356;DHT22;48747;50.250;18.848;2022-12-11T09:01:23;-0.40;99.90
37356;DHT22;48747;50.250;18.848;2022-12-11T09:03:26;-0.40;99.90
37356;DHT22;48747;50.250;18.848;2022-12-11T09:05:31;-0.50;99.90
37356;DHT22;48747;50.250;18.848;2022-12-11T09:07:37;-0.50;99.90
37356;DHT22;48747;50.250;18.848;2022-12-11T09:09:43;-0.40;99.90
37356;DHT22;48747;50.250;18.848;2022-12-11T09:11:49;-0.30;99.90
37356;DHT22;48747;50.250;18.848;2022-12-11T09:13:53;-0.30;99.90
37356;DHT22;48747;50.250;18.848;2022-12-11T09:15:56;-0.30;99.90
37356;DHT22;48747;50.250;18.848;2022-12-11T09:17:59;-0.40;99.90
37356;DHT22;48747;50.250;18.848;2022-12-11T09:20:06;-0.40;99.90
37356;DHT22;48747;50.250;18.848;2022-12-11T09:22:41;-0.40;99.90
37356;DHT22;48747;50.250;18.848;2022-12-11T09:24:42;-0.40;99.90
37356;DHT22;48747;50.250;18.848;2022-12-11T09:27:17;-0.40;99.90
37356;DHT22;48747;50.250;18.848;2022-12-11T09:29:23;-0.40;99.90
37356;DHT22;48747;50.250;18.848;2022-12-11T09:31:30;-0.40;99.90
37356;DHT22;48747;50.250;18.848;2022-12-11T09:33:37;-0.30;99.90
37356;DHT22;48747;50.250;18.848;2022-12-11T09:35:38;-0.20;99.90
37356;DHT22;48747;50.250;18.848;2022-12-11T09:37:41;-0.20;99.90
37356;DHT22;48747;50.250;18.848;2022-12-11T09:39:46;0.00;99.90
37356;DHT22;48747;50.250;18.848;2022-12-11T09:42:03;0.00;99.90
37356;DHT22;48747;50.250;18.848;2022-12-11T09:44:40;0.00;99.90
37356;DHT22;48747;50.250;18.848;2022-12-11T09:46:45;-0.10;99.90
37356;DHT22;48747;50.250;18.848;2022-12-11T09:48:48;-0.10;99.90
37356;DHT22;48747;50.250;18.848;2022-12-11T09:50:54;-0.20;99.90
37356;DHT22;48747;50.250;18.848;2022-12-11T09:55:20;-0.30;99.90
37356;DHT22;48747;50.250;18.848;2022-12-11T10:00:03;-0.20;99.90
37356;DHT22;48747;50.250;18.848;2022-12-11T10:02:29;-0.20;99.90
37356;DHT22;48747;50.250;18.848;2022-12-11T10:16:41;-0.30;99.90
37356;DHT22;48747;50.250;18.848;2022-12-11T10:18:41;-0.20;99.90
37356;DHT22;48747;50.250;18.848;2022-12-11T10:20:46;-0.20;99.90
37356;DHT22;48747;50.250;18.848;2022-12-11T10:39:48;-0.40;99.90
37356;DHT22;48747;50.250;18.848;2022-12-11T10:42:18;-0.40;99.90
37356;DHT22;48747;50.250;18.848;2022-12-11T10:47:23;-0.30;99.90
37356;DHT22;48747;50.250;18.848;2022-12-11T11:00:41;-0.40;99.90
37356;DHT22;48747;50.250;18.848;2022-12-11T11:06:15;-0.40;99.90
37356;DHT22;48747;50.250;18.848;2022-12-11T11:10:54;-0.50;99.90
37356;DHT22;48747;50.250;18.848;2022-12-11T11:13:22;-0.60;99.90
37356;DHT22;48747;50.250;18.848;2022-12-11T11:15:29;-0.60;99.90
37356;DHT22;48747;50.250;18.848;2022-12-11T11:20:25;-0.70;99.90
37356;DHT22;48747;50.250;18.848;2022-12-11T11:25:25;-0.70;99.90
37356;DHT22;48747;50.250;18.848;2022-12-11T11:27:37;-0.70;99.90
37356;DHT22;48747;50.250;18.848;2022-12-11T11:29:41;-0.70;99.90
37356;DHT22;48747;50.250;18.848;2022-12-11T11:43:25;-0.70;99.90
37356;DHT22;48747;50.250;18.848;2022-12-11T11:54:06;-0.60;99.90
37356;DHT22;48747;50.250;18.848;2022-12-11T11:56:32;-0.60;99.90
37356;DHT22;48747;50.250;18.848;2022-12-11T12:01:13;-0.50;99.90
37356;DHT22;48747;50.250;18.848;2022-12-11T12:21:35;-0.50;99.90
37356;DHT22;48747;50.250;18.848;2022-12-11T12:23:16;-0.60;99.90
37356;DHT22;48747;50.250;18.848;2022-12-11T12:28:04;-0.70;99.90
37356;DHT22;48747;50.250;18.848;2022-12-11T12:30:13;-0.70;99.90
37356;DHT22;48747;50.250;18.848;2022-12-11T12:41:48;-0.70;99.90
37356;DHT22;48747;50.250;18.848;2022-12-11T12:48:25;-0.70;99.90
37356;DHT22;48747;50.250;18.848;2022-12-11T12:50:36;-0.70;99.90
37356;DHT22;48747;50.250;18.848;2022-12-11T12:52:41;-0.70;99.90
37356;DHT22;48747;50.250;18.848;2022-12-11T12:54:47;-0.70;99.90
37356;DHT22;48747;50.250;18.848;2022-12-11T12:59:55;-0.70;99.90
37356;DHT22;48747;50.250;18.848;2022-12-11T13:02:03;-0.80;99.90
37356;DHT22;48747;50.250;18.848;2022-12-11T13:04:22;-0.80;99.90
37356;DHT22;48747;50.250;18.848;2022-12-11T13:09:23;-0.90;99.90
37356;DHT22;48747;50.250;18.848;2022-12-11T13:16:23;-0.90;99.90
37356;DHT22;48747;50.250;18.848;2022-12-11T13:23:31;-0.90;99.90
37356;DHT22;48747;50.250;18.848;2022-12-11T13:25:47;-0.90;99.90
37356;DHT22;48747;50.250;18.848;2022-12-11T13:28:04;-0.90;99.90
37356;DHT22;48747;50.250;18.848;2022-12-11T13:30:20;-0.90;99.90
37356;DHT22;48747;50.250;18.848;2022-12-11T13:32:28;-0.90;99.90
37356;DHT22;48747;50.250;18.848;2022-12-11T13:35:03;-1.00;99.90
37356;DHT22;48747;50.250;18.848;2022-12-11T13:40:21;-1.10;99.90
37356;DHT22;48747;50.250;18.848;2022-12-11T13:44:59;-1.10;99.90
37356;DHT22;48747;50.250;18.848;2022-12-11T13:47:14;-1.10;99.90
37356;DHT22;48747;50.250;18.848;2022-12-11T13:49:36;-1.10;99.90
37356;DHT22;48747;50.250;18.848;2022-12-11T13:54:34;-1.10;99.90
37356;DHT22;48747;50.250;18.848;2022-12-11T13:59:28;-1.20;99.90
37356;DHT22;48747;50.250;18.848;2022-12-11T14:01:32;-1.20;99.90
37356;DHT22;48747;50.250;18.848;2022-12-11T14:03:46;-1.30;99.90
37356;DHT22;48747;50.250;18.848;2022-12-11T14:05:44;-1.30;99.90
37356;DHT22;48747;50.250;18.848;2022-12-11T14:08:00;-1.30;99.90
37356;DHT22;48747;50.250;18.848;2022-12-11T14:10:12;-1.40;99.90
37356;DHT22;48747;50.250;18.848;2022-12-11T14:12:18;-1.40;99.90
37356;DHT22;48747;50.250;18.848;2022-12-11T14:14:33;-1.40;99.90
37356;DHT22;48747;50.250;18.848;2022-12-11T14:16:36;-1.50;99.90
37356;DHT22;48747;50.250;18.848;2022-12-11T14:18:39;-1.60;99.90
37356;DHT22;48747;50.250;18.848;2022-12-11T14:20:46;-1.60;99.90
37356;DHT22;48747;50.250;18.848;2022-12-11T14:22:49;-1.70;99.90
37356;DHT22;48747;50.250;18.848;2022-12-11T14:25:00;-1.60;99.90
37356;DHT22;48747;50.250;18.848;2022-12-11T14:27:03;-1.70;99.90
37356;DHT22;48747;50.250;18.848;2022-12-11T14:29:23;-1.70;99.90
37356;DHT22;48747;50.250;18.848;2022-12-11T14:31:36;-1.60;99.90
37356;DHT22;48747;50.250;18.848;2022-12-11T14:33:42;-1.60;99.90
37356;DHT22;48747;50.250;18.848;2022-12-11T14:35:46;-1.60;99.90
37356;DHT22;48747;50.250;18.848;2022-12-11T14:37:57;-1.60;99.90
37356;DHT22;48747;50.250;18.848;2022-12-11T14:40:05;-1.60;99.90
37356;DHT22;48747;50.250;18.848;2022-12-11T14:42:26;-1.60;99.90
37356;DHT22;48747;50.250;18.848;2022-12-11T14:44:33;-1.60;99.90
37356;DHT22;48747;50.250;18.848;2022-12-11T14:48:58;-1.60;99.90
37356;DHT22;48747;50.250;18.848;2022-12-11T14:51:06;-1.60;99.90
37356;DHT22;48747;50.250;18.848;2022-12-11T14:55:32;-1.60;99.90
37356;DHT22;48747;50.250;18.848;2022-12-11T14:57:33;-1.70;99.90
37356;DHT22;48747;50.250;18.848;2022-12-11T14:59:39;-1.70;99.90
37356;DHT22;48747;50.250;18.848;2022-12-11T15:01:44;-1.70;99.90
37356;DHT22;48747;50.250;18.848;2022-12-11T15:04:00;-1.70;99.90
37356;DHT22;48747;50.250;18.848;2022-12-11T15:05:57;-1.70;99.90
37356;DHT22;48747;50.250;18.848;2022-12-11T15:10:27;-1.70;99.90
37356;DHT22;48747;50.250;18.848;2022-12-11T15:12:33;-1.70;99.90
37356;DHT22;48747;50.250;18.848;2022-12-11T15:16:56;-1.70;99.90
37356;DHT22;48747;50.250;18.848;2022-12-11T15:19:01;-1.80;99.90
37356;DHT22;48747;50.250;18.848;2022-12-11T15:21:06;-1.70;99.90
37356;DHT22;48747;50.250;18.848;2022-12-11T15:23:12;-1.70;99.90
37356;DHT22;48747;50.250;18.848;2022-12-11T15:25:19;-1.70;99.90
37356;DHT22;48747;50.250;18.848;2022-12-11T15:27:29;-1.70;99.90
37356;DHT22;48747;50.250;18.848;2022-12-11T15:29:32;-1.70;99.90
37356;DHT22;48747;50.250;18.848;2022-12-11T15:31:35;-1.60;99.90
37356;DHT22;48747;50.250;18.848;2022-12-11T15:33:46;-1.60;99.90
37356;DHT22;48747;50.250;18.848;2022-12-11T15:35:58;-1.70;99.90
37356;DHT22;48747;50.250;18.848;2022-12-11T15:38:03;-1.70;99.90
37356;DHT22;48747;50.250;18.848;2022-12-11T15:40:10;-1.70;99.90
37356;DHT22;48747;50.250;18.848;2022-12-11T15:42:16;-1.60;99.90
37356;DHT22;48747;50.250;18.848;2022-12-11T15:44:25;-1.70;99.90
37356;DHT22;48747;50.250;18.848;2022-12-11T15:46:33;-1.60;99.90
37356;DHT22;48747;50.250;18.848;2022-12-11T15:48:35;-1.60;99.90
37356;DHT22;48747;50.250;18.848;2022-12-11T15:50:39;-1.70;99.90
37356;DHT22;48747;50.250;18.848;2022-12-11T15:52:44;-1.70;99.90
37356;DHT22;48747;50.250;18.848;2022-12-11T15:54:49;-1.70;99.90
37356;DHT22;48747;50.250;18.848;2022-12-11T15:56:55;-1.70;99.90
37356;DHT22;48747;50.250;18.848;2022-12-11T15:59:04;-1.80;99.90
37356;DHT22;48747;50.250;18.848;2022-12-11T16:01:05;-1.70;99.90
37356;DHT22;48747;50.250;18.848;2022-12-11T16:03:11;-1.70;99.90
37356;DHT22;48747;50.250;18.848;2022-12-11T16:05:16;-1.80;99.90
37356;DHT22;48747;50.250;18.848;2022-12-11T16:07:23;-1.70;99.90
37356;DHT22;48747;50.250;18.848;2022-12-11T16:09:26;-1.70;99.90
37356;DHT22;48747;50.250;18.848;2022-12-11T16:11:29;-1.70;99.90
37356;DHT22;48747;50.250;18.848;2022-12-11T16:13:33;-1.70;99.90
37356;DHT22;48747;50.250;18.848;2022-12-11T16:15:39;-1.80;99.90
37356;DHT22;48747;50.250;18.848;2022-12-11T16:17:43;-1.80;99.90
37356;DHT22;48747;50.250;18.848;2022-12-11T16:19:46;-1.80;99.90
37356;DHT22;48747;50.250;18.848;2022-12-11T16:21:52;-1.70;99.90
37356;DHT22;48747;50.250;18.848;2022-12-11T16:23:56;-1.70;99.90
37356;DHT22;48747;50.250;18.848;2022-12-11T16:26:07;-1.70;99.90
37356;DHT22;48747;50.250;18.848;2022-12-11T16:28:13;-1.70;99.90
37356;DHT22;48747;50.250;18.848;2022-12-11T16:30:19;-1.80;99.90
37356;DHT22;48747;50.250;18.848;2022-12-11T16:32:24;-1.80;99.90
37356;DHT22;48747;50.250;18.848;2022-12-11T16:34:29;-1.80;99.90
37356;DHT22;48747;50.250;18.848;2022-12-11T16:36:32;-1.80;99.90
37356;DHT22;48747;50.250;18.848;2022-12-11T16:38:38;-1.80;99.90
37356;DHT22;48747;50.250;18.848;2022-12-11T16:40:43;-1.80;99.90
37356;DHT22;48747;50.250;18.848;2022-12-11T16:42:47;-1.80;99.90
37356;DHT22;48747;50.250;18.848;2022-12-11T16:44:54;-1.80;99.90
37356;DHT22;48747;50.250;18.848;2022-12-11T16:46:59;-1.80;99.90
37356;DHT22;48747;50.250;18.848;2022-12-11T16:49:06;-1.80;99.90
37356;DHT22;48747;50.250;18.848;2022-12-11T16:51:11;-1.80;99.90
37356;DHT22;48747;50.250;18.848;2022-12-11T16:53:15;-1.80;99.90
37356;DHT22;48747;50.250;18.848;2022-12-11T16:55:19;-1.80;99.90
37356;DHT22;48747;50.250;18.848;2022-12-11T16:57:40;-1.80;99.90
37356;DHT22;48747;50.250;18.848;2022-12-11T16:59:29;-1.80;99.90
37356;DHT22;48747;50.250;18.848;2022-12-11T17:01:32;-1.80;99.90
37356;DHT22;48747;50.250;18.848;2022-12-11T17:03:38;-1.80;99.90
37356;DHT22;48747;50.250;18.848;2022-12-11T17:05:45;-1.70;99.90
37356;DHT22;48747;50.250;18.848;2022-12-11T17:07:49;-1.70;99.90
37356;DHT22;48747;50.250;18.848;2022-12-11T17:09:55;-1.80;99.90
37356;DHT22;48747;50.250;18.848;2022-12-11T17:12:02;-1.80;99.90
37356;DHT22;48747;50.250;18.848;2022-12-11T17:14:08;-1.80;99.90
37356;DHT22;48747;50.250;18.848;2022-12-11T17:16:17;-1.80;99.90
37356;DHT22;48747;50.250;18.848;2022-12-11T17:18:23;-1.80;99.90
37356;DHT22;48747;50.250;18.848;2022-12-11T17:20:26;-1.80;99.90
37356;DHT22;48747;50.250;18.848;2022-12-11T17:22:29;-1.80;99.90
37356;DHT22;48747;50.250;18.848;2022-12-11T17:24:32;-1.80;99.90
37356;DHT22;48747;50.250;18.848;2022-12-11T17:26:35;-1.90;99.90
37356;DHT22;48747;50.250;18.848;2022-12-11T17:28:39;-1.90;99.90
37356;DHT22;48747;50.250;18.848;2022-12-11T17:30:44;-1.90;99.90
37356;DHT22;48747;50.250;18.848;2022-12-11T17:32:53;-1.90;99.90
37356;DHT22;48747;50.250;18.848;2022-12-11T17:34:59;-2.00;99.90
37356;DHT22;48747;50.250;18.848;2022-12-11T17:37:04;-1.90;99.90
37356;DHT22;48747;50.250;18.848;2022-12-11T17:39:09;-1.90;99.90
37356;DHT22;48747;50.250;18.848;2022-12-11T17:41:13;-1.90;99.90
37356;DHT22;48747;50.250;18.848;2022-12-11T17:43:22;-1.90;99.90
37356;DHT22;48747;50.250;18.848;2022-12-11T17:45:21;-1.90;99.90
37356;DHT22;48747;50.250;18.848;2022-12-11T17:47:24;-1.90;99.90
37356;DHT22;48747;50.250;18.848;2022-12-11T17:49:27;-1.90;99.90
37356;DHT22;48747;50.250;18.848;2022-12-11T17:51:30;-1.90;99.90
37356;DHT22;48747;50.250;18.848;2022-12-11T17:53:37;-1.90;99.90
37356;DHT22;48747;50.250;18.848;2022-12-11T17:55:41;-1.90;99.90
37356;DHT22;48747;50.250;18.848;2022-12-11T17:57:46;-1.90;99.90
37356;DHT22;48747;50.250;18.848;2022-12-11T17:59:53;-1.90;99.90
37356;DHT22;48747;50.250;18.848;2022-12-11T18:01:57;-2.00;99.90
37356;DHT22;48747;50.250;18.848;2022-12-11T18:04:01;-2.00;99.90
37356;DHT22;48747;50.250;18.848;2022-12-11T18:06:07;-2.00;99.90
37356;DHT22;48747;50.250;18.848;2022-12-11T18:08:22;-2.00;99.90
37356;DHT22;48747;50.250;18.848;2022-12-11T18:10:21;-2.00;99.90
37356;DHT22;48747;50.250;18.848;2022-12-11T18:12:24;-2.00;99.90
37356;DHT22;48747;50.250;18.848;2022-12-11T18:14:28;-2.00;99.90
37356;DHT22;48747;50.250;18.848;2022-12-11T18:16:36;-2.10;99.90
37356;DHT22;48747;50.250;18.848;2022-12-11T18:18:40;-2.00;99.90
37356;DHT22;48747;50.250;18.848;2022-12-11T18:20:45;-2.10;99.90
37356;DHT22;48747;50.250;18.848;2022-12-11T18:22:50;-2.10;99.90
37356;DHT22;48747;50.250;18.848;2022-12-11T18:24:56;-2.00;99.90
37356;DHT22;48747;50.250;18.848;2022-12-11T18:27:01;-2.10;99.90
37356;DHT22;48747;50.250;18.848;2022-12-11T18:29:05;-2.00;99.90
37356;DHT22;48747;50.250;18.848;2022-12-11T18:31:09;-2.00;99.90
37356;DHT22;48747;50.250;18.848;2022-12-11T18:33:12;-2.00;99.90
37356;DHT22;48747;50.250;18.848;2022-12-11T18:35:17;-2.00;99.90
37356;DHT22;48747;50.250;18.848;2022-12-11T18:37:20;-2.10;99.90
37356;DHT22;48747;50.250;18.848;2022-12-11T18:39:26;-2.10;99.90
37356;DHT22;48747;50.250;18.848;2022-12-11T18:41:28;-2.10;99.90
37356;DHT22;48747;50.250;18.848;2022-12-11T18:43:32;-2.10;99.90
37356;DHT22;48747;50.250;18.848;2022-12-11T18:45:48;-2.00;99.90
37356;DHT22;48747;50.250;18.848;2022-12-11T18:47:49;-2.10;99.90
37356;DHT22;48747;50.250;18.848;2022-12-11T18:49:52;-2.10;99.90
37356;DHT22;48747;50.250;18.848;2022-12-11T18:51:58;-2.00;99.90
37356;DHT22;48747;50.250;18.848;2022-12-11T18:54:02;-2.10;99.90
37356;DHT22;48747;50.250;18.848;2022-12-11T18:56:11;-2.00;99.90
37356;DHT22;48747;50.250;18.848;2022-12-11T18:58:18;-2.00;99.90
37356;DHT22;48747;50.250;18.848;2022-12-11T19:00:21;-2.00;99.90
37356;DHT22;48747;50.250;18.848;2022-12-11T19:02:26;-2.00;99.90
37356;DHT22;48747;50.250;18.848;2022-12-11T19:04:32;-2.10;99.90
37356;DHT22;48747;50.250;18.848;2022-12-11T19:06:37;-2.00;99.90
37356;DHT22;48747;50.250;18.848;2022-12-11T19:08:40;-2.00;99.90
37356;DHT22;48747;50.250;18.848;2022-12-11T19:10:51;-2.00;99.90
37356;DHT22;48747;50.250;18.848;2022-12-11T19:12:51;-2.00;99.90
37356;DHT22;48747;50.250;18.848;2022-12-11T19:14:56;-2.00;99.90
37356;DHT22;48747;50.250;18.848;2022-12-11T19:16:59;-2.00;99.90
37356;DHT22;48747;50.250;18.848;2022-12-11T19:19:06;-2.00;99.90
37356;DHT22;48747;50.250;18.848;2022-12-11T19:21:12;-2.00;99.90
37356;DHT22;48747;50.250;18.848;2022-12-11T19:23:18;-2.00;99.90
37356;DHT22;48747;50.250;18.848;2022-12-11T19:25:22;-2.10;99.90
37356;DHT22;48747;50.250;18.848;2022-12-11T19:27:25;-2.10;99.90
37356;DHT22;48747;50.250;18.848;2022-12-11T19:29:30;-2.00;99.90
37356;DHT22;48747;50.250;18.848;2022-12-11T19:31:36;-2.00;99.90
37356;DHT22;48747;50.250;18.848;2022-12-11T19:33:43;-2.00;99.90
37356;DHT22;48747;50.250;18.848;2022-12-11T19:35:46;-2.00;99.90
37356;DHT22;48747;50.250;18.848;2022-12-11T19:37:49;-2.00;99.90
37356;DHT22;48747;50.250;18.848;2022-12-11T19:39:52;-2.00;99.90
37356;DHT22;48747;50.250;18.848;2022-12-11T19:41:55;-2.00;99.90
37356;DHT22;48747;50.250;18.848;2022-12-11T19:43:59;-2.00;99.90
37356;DHT22;48747;50.250;18.848;2022-12-11T19:46:03;-2.00;99.90
37356;DHT22;48747;50.250;18.848;2022-12-11T19:48:07;-2.00;99.90